Time;durP1;ratioP1;P1;durP2;ratioP2;P2;SDS_P1;SDS_P2;PMS_P1;PMS_P2;Temp;Humidity;BMP_temperature;BMP_pressure;BME280_temperature;BME280_humidity;BME280_pressure;Samples;Min_cycle;Max_cycle;Signal;HPM_P1;HPM_P2
2022/05/01 00:01:08;;;;;;;17.10;10.80;;;2.30;77.90;;;;;;5064217;28;20683;-63
2022/05/01 00:03:36;;;;;;;15.37;11.30;;;2.30;77.90;;;;;;5031995;28;20508;-63
2022/05/01 00:06:07;;;;;;;17.30;12.13;;;2.20;77.90;;;;;;5019090;28;20051;-63
2022/05/01 00:08:35;;;;;;;19.52;13.05;;;2.20;77.90;;;;;;5065088;28;20047;-63
2022/05/01 00:11:01;;;;;;;21.77;14.00;;;2.20;77.90;;;;;;5064033;28;20706;-63
2022/05/01 00:13:27;;;;;;;20.80;13.10;;;2.10;78.10;;;;;;5055308;28;20043;-63
2022/05/01 00:15:54;;;;;;;16.25;12.45;;;2.20;78.10;;;;;;5054836;28;20450;-63
2022/05/01 00:18:20;;;;;;;18.75;12.80;;;2.10;78.10;;;;;;5078591;28;20102;-63
2022/05/01 00:20:46;;;;;;;17.17;12.25;;;2.10;78.00;;;;;;5072001;28;20115;-63
2022/05/01 00:23:13;;;;;;;15.82;10.88;;;2.10;78.00;;;;;;5068256;28;20052;-63
2022/05/01 00:25:41;;;;;;;16.27;11.93;;;2.00;78.00;;;;;;5052578;28;20534;-63
2022/05/01 00:28:14;;;;;;;17.58;11.25;;;2.00;77.90;;;;;;5051705;28;20105;-63
2022/05/01 00:30:40;;;;;;;15.88;10.93;;;2.00;77.90;;;;;;5068090;28;20036;-63
2022/05/01 00:38:36;;;;;;;14.68;11.52;;;1.90;77.90;;;;;;5061322;28;20044;-63
2022/05/01 00:41:04;;;;;;;16.92;12.13;;;1.80;77.90;;;;;;5066984;28;20122;-63
2022/05/01 00:43:31;;;;;;;14.90;10.48;;;1.80;78.00;;;;;;5051773;28;20476;-63
2022/05/01 00:45:57;;;;;;;16.02;11.55;;;1.80;78.30;;;;;;5059995;28;20487;-63
2022/05/01 00:48:23;;;;;;;19.43;12.40;;;1.80;78.10;;;;;;5067762;28;20048;-63
2022/05/01 00:50:49;;;;;;;19.33;13.27;;;1.80;78.10;;;;;;5065577;28;20063;-63
2022/05/01 00:53:15;;;;;;;21.05;14.07;;;1.70;78.20;;;;;;5068705;28;20291;-63
2022/05/01 00:55:41;;;;;;;17.58;13.05;;;1.70;78.30;;;;;;5048218;28;20036;-63
2022/05/01 00:58:08;;;;;;;20.93;14.10;;;1.70;78.30;;;;;;5076003;28;20039;-63
2022/05/01 01:00:35;;;;;;;18.05;13.40;;;1.70;78.90;;;;;;5055552;28;20044;-63
2022/05/01 01:03:01;;;;;;;18.83;13.02;;;1.70;79.00;;;;;;5067378;28;20060;-63
2022/05/01 01:05:27;;;;;;;18.33;13.15;;;1.60;79.20;;;;;;5065299;28;20365;-63
2022/05/01 01:07:53;;;;;;;19.55;13.40;;;1.60;79.00;;;;;;5066828;28;20036;-63
2022/05/01 01:10:19;;;;;;;20.17;11.90;;;1.50;78.90;;;;;;5076367;28;20534;-63
2022/05/01 01:12:54;;;;;;;17.75;12.70;;;1.50;78.80;;;;;;5064310;28;20497;-63
2022/05/01 01:15:21;;;;;;;20.25;13.30;;;1.50;78.80;;;;;;5065804;28;20029;-63
2022/05/01 01:17:54;;;;;;;16.63;11.82;;;1.40;79.00;;;;;;5049196;28;20072;-63
2022/05/01 01:20:21;;;;;;;13.07;9.93;;;1.40;79.40;;;;;;5051760;28;20032;-63
2022/05/01 01:22:49;;;;;;;14.70;9.45;;;1.40;79.60;;;;;;5068978;28;20044;-63
2022/05/01 01:25:27;;;;;;;13.50;9.77;;;1.40;80.00;;;;;;5049356;28;20454;-63
2022/05/01 01:27:57;;;;;;;12.05;9.18;;;1.30;79.80;;;;;;5054827;28;20115;-63
2022/05/01 01:33:07;;;;;;;12.05;9.75;;;1.20;79.50;;;;;;5065492;28;20052;-63
2022/05/01 01:35:35;;;;;;;12.47;9.23;;;1.20;79.50;;;;;;5066607;28;20592;-63
2022/05/01 01:38:02;;;;;;;14.05;10.10;;;1.20;79.40;;;;;;5065109;28;20036;-63
2022/05/01 01:40:37;;;;;;;12.50;9.05;;;1.20;79.30;;;;;;5067437;28;20044;-63
2022/05/01 01:43:04;;;;;;;;;;;1.10;79.40;;;;;;5064726;28;20040;-63
2022/05/01 01:45:29;;;;;;;10.40;7.60;;;1.10;79.30;;;;;;5063488;28;19963;-63
2022/05/01 01:47:57;;;;;;;10.50;8.53;;;1.00;79.50;;;;;;5066267;28;20079;-63
2022/05/01 01:50:24;;;;;;;13.75;10.05;;;1.00;79.30;;;;;;5050026;28;20064;-63
2022/05/01 01:52:50;;;;;;;13.30;8.27;;;1.00;79.30;;;;;;5066005;28;20044;-63
2022/05/01 01:55:17;;;;;;;10.87;8.07;;;1.00;79.50;;;;;;5065871;28;20037;-63
2022/05/01 01:57:45;;;;;;;13.10;8.80;;;1.00;79.40;;;;;;5065074;28;20036;-63
2022/05/01 02:00:11;;;;;;;11.82;8.60;;;1.00;79.30;;;;;;5095293;27;20036;-63
2022/05/01 02:02:37;;;;;;;11.68;8.77;;;1.00;79.30;;;;;;5062003;28;20036;-63
2022/05/01 02:05:04;;;;;;;10.43;8.43;;;1.00;79.40;;;;;;5056416;28;20121;-63
2022/05/01 02:07:31;;;;;;;11.48;8.40;;;1.00;79.30;;;;;;5049050;28;20283;-63
2022/05/01 02:09:57;;;;;;;12.98;9.52;;;1.00;79.20;;;;;;5061569;28;20048;-63
2022/05/01 02:12:23;;;;;;;12.32;10.07;;;1.00;79.20;;;;;;5066414;28;20029;-63
2022/05/01 02:14:49;;;;;;;14.02;10.65;;;1.00;79.20;;;;;;5049878;28;20032;-63
2022/05/01 02:17:15;;;;;;;13.97;10.33;;;1.00;79.20;;;;;;5069417;28;20041;-63
2022/05/01 02:19:42;;;;;;;16.25;10.90;;;1.10;79.10;;;;;;5066130;28;20291;-63
2022/05/01 02:22:07;;;;;;;13.32;10.20;;;1.00;79.10;;;;;;5051782;28;20051;-63
2022/05/01 02:24:34;;;;;;;14.33;9.97;;;1.00;79.10;;;;;;5068431;28;20044;-63
2022/05/01 02:27:00;;;;;;;15.50;11.73;;;1.00;79.10;;;;;;5065880;28;20079;-63
2022/05/01 02:29:27;;;;;;;15.38;11.18;;;1.00;79.10;;;;;;5048569;28;20048;-63
2022/05/01 02:31:53;;;;;;;14.30;11.00;;;1.00;79.10;;;;;;5065614;28;20055;-63
2022/05/01 02:34:22;;;;;;;15.80;12.15;;;1.00;79.10;;;;;;5065340;28;20665;-63
2022/05/01 02:36:55;;;;;;;17.70;12.57;;;1.00;79.10;;;;;;5060667;28;20786;-63
2022/05/01 02:39:22;;;;;;;18.90;12.07;;;1.00;79.10;;;;;;5065357;28;20059;-63
2022/05/01 02:41:50;;;;;;;16.70;11.18;;;1.00;79.00;;;;;;5046256;28;20051;-63
2022/05/01 02:44:16;;;;;;;17.48;12.55;;;0.90;79.00;;;;;;5048573;28;20044;-63
2022/05/01 02:46:41;;;;;;;18.17;12.32;;;0.90;79.10;;;;;;5062807;28;20553;-63
2022/05/01 02:49:08;;;;;;;14.93;11.80;;;0.90;79.10;;;;;;5032457;28;20074;-63
2022/05/01 02:51:36;;;;;;;14.30;11.35;;;0.90;79.10;;;;;;5046311;28;20079;-63
2022/05/01 02:54:04;;;;;;;14.63;11.73;;;0.90;79.20;;;;;;5049744;28;21320;-63
2022/05/01 02:56:30;;;;;;;13.93;9.93;;;0.80;79.20;;;;;;5048802;28;20139;-63
2022/05/01 02:58:57;;;;;;;15.98;10.52;;;0.80;79.20;;;;;;5065376;28;20037;-63
2022/05/01 03:01:23;;;;;;;15.10;10.20;;;0.80;79.20;;;;;;5062700;28;20054;-63
2022/05/01 03:03:50;;;;;;;16.58;11.65;;;0.80;79.10;;;;;;5048187;28;20052;-63
2022/05/01 03:06:16;;;;;;;15.57;11.77;;;0.80;79.10;;;;;;5042701;28;20032;-63
2022/05/01 03:08:42;;;;;;;13.00;10.07;;;0.70;79.10;;;;;;5048079;28;20044;-63
2022/05/01 03:11:08;;;;;;;15.87;11.40;;;0.70;79.20;;;;;;5064570;28;20535;-63
2022/05/01 03:13:33;;;;;;;14.60;10.43;;;0.70;79.20;;;;;;5040458;28;20040;-63
2022/05/01 03:16:00;;;;;;;13.70;10.43;;;0.70;79.20;;;;;;5060308;28;20299;-63
2022/05/01 03:23:54;;;;;;;12.80;10.52;;;0.60;79.50;;;;;;5066525;28;20055;-63
2022/05/01 03:26:20;;;;;;;13.80;10.40;;;0.60;79.40;;;;;;5064369;28;20472;-63
2022/05/01 03:28:47;;;;;;;14.23;11.00;;;0.50;79.50;;;;;;5040947;28;20044;-63
2022/05/01 03:31:13;;;;;;;15.60;11.27;;;0.50;79.40;;;;;;5031955;28;20041;-63
2022/05/01 03:33:39;;;;;;;15.75;11.30;;;0.50;79.40;;;;;;5065447;28;20037;-63
2022/05/01 03:36:06;;;;;;;14.80;10.93;;;0.50;79.40;;;;;;5049710;28;20550;-63
2022/05/01 03:38:42;;;;;;;17.05;12.70;;;0.40;79.40;;;;;;5052226;28;20043;-63
2022/05/01 03:41:12;;;;;;;15.98;11.27;;;0.40;79.50;;;;;;5073333;28;20125;-63
2022/05/01 03:43:38;;;;;;;15.23;10.98;;;0.40;79.60;;;;;;5069234;28;20083;-63
2022/05/01 03:46:05;;;;;;;11.95;9.43;;;0.40;79.60;;;;;;5028560;28;20527;-63
2022/05/01 03:48:32;;;;;;;13.48;10.05;;;0.30;79.60;;;;;;5068892;28;20048;-63
2022/05/01 03:50:58;;;;;;;14.10;10.77;;;0.30;79.50;;;;;;5068429;28;20174;-63
2022/05/01 03:53:25;;;;;;;14.85;11.52;;;0.30;79.50;;;;;;5054738;28;20148;-63
2022/05/01 03:55:51;;;;;;;12.48;9.73;;;0.20;79.60;;;;;;5068281;28;20575;-63
2022/05/01 03:58:18;;;;;;;13.15;10.68;;;0.20;79.80;;;;;;5068179;28;20040;-63
2022/05/01 04:00:46;;;;;;;12.65;9.57;;;0.20;79.70;;;;;;5053829;28;20151;-62
2022/05/01 04:03:12;;;;;;;14.15;9.75;;;0.20;79.70;;;;;;5068055;28;20076;-63
2022/05/01 04:05:38;;;;;;;12.63;9.83;;;0.20;79.70;;;;;;5067517;28;20064;-63
2022/05/01 04:08:04;;;;;;;13.43;10.93;;;0.20;79.70;;;;;;5051534;28;20105;-63
2022/05/01 04:10:30;;;;;;;13.38;8.93;;;0.20;79.60;;;;;;5063354;28;20310;-63
2022/05/01 04:12:55;;;;;;;12.30;10.10;;;0.30;80.00;;;;;;5068043;28;20040;-63
2022/05/01 04:15:22;;;;;;;12.37;9.03;;;0.30;79.90;;;;;;5067982;28;20144;-63
2022/05/01 04:17:48;;;;;;;11.55;8.93;;;0.30;79.90;;;;;;5068250;28;20051;-63
2022/05/01 04:20:17;;;;;;;12.13;8.95;;;0.30;79.80;;;;;;5052079;28;20040;-63
2022/05/01 04:22:45;;;;;;;11.88;9.30;;;0.30;79.90;;;;;;5072866;28;20032;-63
2022/05/01 04:25:20;;;;;;;11.77;9.27;;;0.30;79.80;;;;;;5052056;28;20048;-63
2022/05/01 04:27:47;;;;;;;14.32;10.13;;;0.40;79.80;;;;;;5067751;28;20062;-63
2022/05/01 04:30:14;;;;;;;12.82;9.73;;;0.40;79.80;;;;;;5068908;28;20048;-63
2022/05/01 04:33:07;;;;;;;14.18;10.10;;;0.50;79.80;;;;;;5051667;28;20063;-63
2022/05/01 04:35:38;;;;;;;15.82;10.65;;;0.50;79.90;;;;;;5064451;28;20044;-63
2022/05/01 04:38:16;;;;;;;14.32;10.27;;;0.60;79.80;;;;;;5068229;28;20047;-63
2022/05/01 04:40:50;;;;;;;12.27;9.90;;;0.60;79.90;;;;;;5059943;28;20044;-63
2022/05/01 04:43:18;;;;;;;13.32;10.13;;;0.70;79.90;;;;;;5070508;28;20526;-63
2022/05/01 04:45:46;;;;;;;13.02;8.80;;;0.80;79.90;;;;;;5061306;28;20040;-63
2022/05/01 04:48:13;;;;;;;12.23;8.82;;;0.80;79.90;;;;;;5067305;28;20466;-63
2022/05/01 04:50:40;;;;;;;12.73;9.77;;;0.90;79.90;;;;;;5044063;28;20063;-63
2022/05/01 04:53:09;;;;;;;13.77;10.98;;;1.00;79.90;;;;;;5053249;28;20048;-63
2022/05/01 04:55:36;;;;;;;13.90;10.30;;;1.10;80.10;;;;;;5050434;28;20040;-63
2022/05/01 04:58:03;;;;;;;12.35;9.75;;;1.20;80.70;;;;;;5050515;28;20046;-63
2022/05/01 05:00:29;;;;;;;13.32;10.52;;;1.30;80.70;;;;;;5062032;28;20179;-63
2022/05/01 05:02:59;;;;;;;11.55;9.35;;;1.40;80.50;;;;;;5033120;28;20040;-63
2022/05/01 05:05:26;;;;;;;15.32;10.93;;;1.50;80.40;;;;;;5059534;28;20042;-63
2022/05/01 05:07:52;;;;;;;13.48;11.15;;;1.60;80.50;;;;;;5067173;28;20041;-63
2022/05/01 05:10:18;;;;;;;16.58;12.52;;;1.80;80.40;;;;;;5062752;28;20044;-63
2022/05/01 05:12:46;;;;;;;15.10;12.17;;;2.00;80.40;;;;;;5049106;28;20036;-63
2022/05/01 05:15:15;;;;;;;14.55;11.60;;;2.30;80.70;;;;;;5066542;28;20084;-63
2022/05/01 05:17:41;;;;;;;14.13;11.38;;;2.60;80.70;;;;;;5066949;28;20198;-63
2022/05/01 05:20:09;;;;;;;10.55;8.98;;;2.80;80.50;;;;;;5050320;28;20386;-63
2022/05/01 05:22:35;;;;;;;9.73;8.38;;;2.90;80.50;;;;;;5042732;28;20044;-63
2022/05/01 05:25:02;;;;;;;8.95;7.72;;;3.00;80.50;;;;;;5054061;28;20044;-63
2022/05/01 05:27:27;;;;;;;7.97;7.22;;;3.00;80.60;;;;;;5068211;28;20048;-63
2022/05/01 05:29:57;;;;;;;8.40;7.50;;;3.10;80.80;;;;;;5067567;28;20048;-63
2022/05/01 05:32:24;;;;;;;8.82;7.30;;;3.20;80.80;;;;;;5062414;28;20122;-63
2022/05/01 05:34:50;;;;;;;6.97;6.28;;;3.20;81.20;;;;;;5068834;28;20031;-63
2022/05/01 05:37:17;;;;;;;7.15;6.45;;;3.30;81.40;;;;;;5075706;28;20393;-63
2022/05/01 05:39:43;;;;;;;6.50;5.90;;;3.40;81.50;;;;;;5065772;28;20040;-63
2022/05/01 05:42:09;;;;;;;7.85;6.85;;;3.50;81.60;;;;;;5047241;28;20044;-63
2022/05/01 05:44:35;;;;;;;8.43;6.97;;;3.60;81.70;;;;;;5052011;28;20045;-63
2022/05/01 05:47:01;;;;;;;6.80;6.10;;;3.80;81.80;;;;;;5065403;28;20419;-63
2022/05/01 05:49:27;;;;;;;7.33;6.37;;;3.90;81.80;;;;;;5065823;28;20298;-63
2022/05/01 05:51:53;;;;;;;7.40;6.67;;;4.10;81.80;;;;;;5064210;28;20045;-63
2022/05/01 05:54:19;;;;;;;8.50;6.93;;;4.20;82.00;;;;;;5046732;28;20127;-63
2022/05/01 05:56:44;;;;;;;7.90;6.60;;;4.40;81.80;;;;;;5057774;28;20293;-64
2022/05/01 05:59:11;;;;;;;8.97;6.93;;;4.50;81.80;;;;;;5066022;28;20233;-64
2022/05/01 06:01:37;;;;;;;8.75;7.10;;;4.70;81.90;;;;;;5048859;28;20041;-64
2022/05/01 06:04:03;;;;;;;7.75;6.97;;;4.90;81.80;;;;;;5066649;28;20500;-64
2022/05/01 06:06:29;;;;;;;8.67;6.97;;;5.00;81.80;;;;;;5062169;28;20054;-64
2022/05/01 06:08:54;;;;;;;9.63;8.07;;;5.20;81.80;;;;;;5052276;28;20376;-64
2022/05/01 06:11:20;;;;;;;9.23;8.23;;;5.50;81.80;;;;;;5049266;28;20080;-64
2022/05/01 06:13:46;;;;;;;11.27;8.30;;;5.70;81.80;;;;;;5053086;28;20036;-64
2022/05/01 06:16:12;;;;;;;9.30;8.17;;;6.10;81.80;;;;;;5072206;28;20610;-64
2022/05/01 06:18:37;;;;;;;10.13;7.90;;;6.50;81.40;;;;;;5057947;28;20041;-64
2022/05/01 06:21:03;;;;;;;9.93;8.77;;;6.90;80.20;;;;;;5045593;28;20173;-64
2022/05/01 06:23:29;;;;;;;10.27;8.10;;;7.50;80.20;;;;;;5065379;28;20071;-64
2022/05/01 06:25:55;;;;;;;11.43;8.33;;;8.40;77.80;;;;;;5060626;28;20037;-64
2022/05/01 06:28:21;;;;;;;10.23;7.85;;;9.30;75.00;;;;;;5050495;28;20048;-64
2022/05/01 06:30:49;;;;;;;10.93;8.37;;;10.20;72.10;;;;;;5064558;28;20479;-64
2022/05/01 06:33:20;;;;;;;10.82;8.40;;;11.10;69.80;;;;;;5048752;28;20287;-64
2022/05/01 06:35:52;;;;;;;10.15;8.85;;;11.80;67.80;;;;;;5065235;28;20385;-64
2022/05/01 06:38:18;;;;;;;13.43;9.88;;;12.40;65.60;;;;;;5069701;28;20059;-64
2022/05/01 06:40:44;;;;;;;13.03;9.10;;;13.00;63.60;;;;;;5072275;28;20423;-64
2022/05/01 06:43:11;;;;;;;11.30;8.13;;;13.50;62.30;;;;;;5052672;28;20113;-64
2022/05/01 06:45:37;;;;;;;11.07;8.18;;;13.80;61.70;;;;;;5063936;28;20084;-64
2022/05/01 06:48:03;;;;;;;10.13;8.27;;;13.90;59.50;;;;;;5048936;28;20106;-64
2022/05/01 06:50:30;;;;;;;9.38;7.50;;;14.00;60.40;;;;;;5064957;28;20048;-64
2022/05/01 06:52:56;;;;;;;11.80;7.18;;;14.00;59.50;;;;;;5072397;28;20114;-64
2022/05/01 06:55:25;;;;;;;6.78;6.07;;;13.60;59.70;;;;;;5038125;28;20511;-64
2022/05/01 06:57:52;;;;;;;8.63;6.35;;;12.80;60.40;;;;;;5078537;28;20041;-64
2022/05/01 07:00:18;;;;;;;8.52;6.45;;;12.20;62.90;;;;;;5065114;28;20072;-64
2022/05/01 07:02:49;;;;;;;9.25;6.47;;;11.70;64.10;;;;;;5055400;28;20044;-64
2022/05/01 07:05:15;;;;;;;8.15;5.82;;;11.30;64.40;;;;;;5066268;28;20409;-64
2022/05/01 07:07:41;;;;;;;7.30;4.90;;;11.10;65.60;;;;;;5058870;28;20078;-64
2022/05/01 07:10:08;;;;;;;6.53;4.70;;;10.90;65.00;;;;;;5060558;28;20037;-64
2022/05/01 07:12:34;;;;;;;5.63;5.03;;;10.70;65.10;;;;;;5064795;28;20040;-64
2022/05/01 07:15:00;;;;;;;8.18;5.00;;;10.60;65.40;;;;;;5059383;28;20040;-64
2022/05/01 07:17:27;;;;;;;7.72;5.18;;;10.60;65.80;;;;;;5065359;28;20098;-64
2022/05/01 07:19:53;;;;;;;7.43;4.57;;;10.60;65.50;;;;;;5064757;28;20046;-64
2022/05/01 07:22:18;;;;;;;5.50;4.73;;;10.60;65.50;;;;;;5072498;28;20037;-64
2022/05/01 07:24:44;;;;;;;7.63;3.80;;;10.60;65.30;;;;;;5093655;28;20052;-64
2022/05/01 07:27:10;;;;;;;6.33;4.77;;;10.60;64.80;;;;;;5031212;28;20075;-64
2022/05/01 07:29:36;;;;;;;5.03;3.67;;;10.60;64.60;;;;;;5060585;28;20467;-64
2022/05/01 07:32:02;;;;;;;6.87;5.10;;;10.70;64.80;;;;;;5064054;28;20303;-64
2022/05/01 07:34:28;;;;;;;7.80;5.80;;;10.80;64.40;;;;;;5097699;28;20036;-64
2022/05/01 07:36:54;;;;;;;6.00;4.83;;;10.90;64.80;;;;;;5064670;28;20041;-65
2022/05/01 07:39:19;;;;;;;9.03;6.00;;;11.00;65.30;;;;;;5060465;28;20124;-64
2022/05/01 07:41:45;;;;;;;8.90;6.07;;;11.20;64.60;;;;;;5077987;28;20328;-65
2022/05/01 07:44:13;;;;;;;9.53;5.23;;;11.40;63.90;;;;;;5070224;28;20076;-65
2022/05/01 07:46:43;;;;;;;6.80;5.38;;;11.50;63.50;;;;;;5060820;28;20086;-65
2022/05/01 07:49:10;;;;;;;6.60;4.95;;;11.60;62.90;;;;;;5100254;28;20070;-65
2022/05/01 07:51:36;;;;;;;6.43;4.75;;;11.70;63.10;;;;;;5056320;28;20049;-65
2022/05/01 07:54:04;;;;;;;7.65;5.53;;;11.90;62.40;;;;;;5047405;28;20041;-65
2022/05/01 07:56:31;;;;;;;7.45;5.68;;;12.00;62.20;;;;;;5058804;28;20098;-65
2022/05/01 07:58:57;;;;;;;6.80;4.90;;;12.20;62.00;;;;;;5060141;28;20527;-65
2022/05/01 08:01:22;;;;;;;8.70;5.60;;;12.30;60.90;;;;;;5062014;28;20044;-65
2022/05/01 08:06:33;;;;;;;7.68;5.40;;;12.50;60.60;;;;;;5060963;28;20127;-65
2022/05/01 08:08:59;;;;;;;7.90;5.07;;;12.50;59.90;;;;;;5044586;28;20185;-65
2022/05/01 08:11:25;;;;;;;7.27;4.63;;;12.50;59.60;;;;;;5077070;28;20481;-65
2022/05/01 08:13:51;;;;;;;6.57;5.07;;;12.40;58.50;;;;;;5062025;28;20040;-65
2022/05/01 08:16:17;;;;;;;6.70;5.07;;;12.30;59.60;;;;;;5054655;28;20340;-65
2022/05/01 08:21:31;;;;;;;5.53;4.63;;;12.20;60.20;;;;;;5058843;28;20301;-65
2022/05/01 08:23:57;;;;;;;9.00;4.97;;;12.10;59.90;;;;;;5055174;28;20045;-65
2022/05/01 08:26:23;;;;;;;5.80;4.50;;;12.20;59.90;;;;;;5062958;28;20389;-65
2022/05/01 08:28:52;;;;;;;6.40;4.20;;;12.30;59.80;;;;;;5058318;28;20315;-65
2022/05/01 08:31:17;;;;;;;5.37;4.50;;;12.50;58.90;;;;;;5064339;28;20301;-65
2022/05/01 08:33:43;;;;;;;6.27;4.47;;;12.70;58.60;;;;;;5064279;28;20294;-65
2022/05/01 08:36:09;;;;;;;8.03;4.60;;;12.90;58.30;;;;;;5059803;28;20485;-65
2022/05/01 08:38:37;;;;;;;6.43;5.47;;;13.20;57.10;;;;;;5072362;28;20048;-65
2022/05/01 08:41:03;;;;;;;6.47;4.60;;;13.40;57.90;;;;;;5035648;28;20086;-65
2022/05/01 08:43:29;;;;;;;6.03;4.67;;;13.80;57.40;;;;;;5068449;28;20286;-65
2022/05/01 08:46:16;;;;;;;5.63;4.30;;;14.10;56.80;;;;;;5058930;28;20337;-65
2022/05/01 08:48:51;;;;;;;6.53;3.97;;;14.40;55.50;;;;;;5064051;28;20044;-65
2022/05/01 08:51:18;;;;;;;4.32;3.92;;;14.50;54.60;;;;;;5062489;28;20322;-65
2022/05/01 08:53:45;;;;;;;9.10;5.30;;;14.40;54.50;;;;;;5067327;28;20047;-65
2022/05/01 08:56:11;;;;;;;6.67;4.90;;;14.40;54.30;;;;;;5047700;28;20855;-65
2022/05/01 08:58:41;;;;;;;7.17;4.60;;;14.40;53.00;;;;;;5063670;28;20327;-65
2022/05/01 09:01:11;;;;;;;9.07;6.00;;;14.40;53.60;;;;;;5045507;28;20294;-65
2022/05/01 09:03:39;;;;;;;10.97;6.50;;;14.50;54.10;;;;;;5091775;28;20288;-65
2022/05/01 09:06:05;;;;;;;7.87;5.67;;;14.70;53.80;;;;;;5063721;28;20659;-65
2022/05/01 09:08:31;;;;;;;6.73;5.53;;;14.70;52.90;;;;;;5063978;28;20282;-65
2022/05/01 09:12:49;;;;;;;6.57;4.77;;;14.80;53.40;;;;;;5062867;28;20389;-65
2022/05/01 09:13:43;;;;;;;7.33;5.17;;;15.10;53.40;;;;;;5066893;28;20290;-65
2022/05/01 09:16:11;;;;;;;7.43;4.37;;;15.20;51.30;;;;;;5070430;28;20730;-65
2022/05/01 09:18:46;;;;;;;8.07;4.87;;;14.90;49.10;;;;;;5057850;28;20659;-65
2022/05/01 09:21:12;;;;;;;7.40;4.40;;;14.70;50.30;;;;;;5048278;28;21097;-65
2022/05/01 09:23:44;;;;;;;6.63;4.90;;;14.50;51.10;;;;;;5094038;28;20456;-65
2022/05/01 09:26:11;;;;;;;6.67;5.03;;;14.60;51.50;;;;;;5065544;28;20298;-65
2022/05/01 09:28:50;;;;;;;6.17;4.67;;;14.60;50.20;;;;;;5047990;28;20326;-65
2022/05/01 09:31:17;;;;;;;7.37;4.53;;;14.60;51.20;;;;;;5050710;28;20452;-65
2022/05/01 09:33:43;;;;;;;6.53;4.73;;;14.40;51.10;;;;;;5067537;28;20290;-65
2022/05/01 09:36:29;;;;;;;6.00;4.53;;;14.30;50.50;;;;;;5049338;28;20632;-65
2022/05/01 09:39:05;;;;;;;6.37;4.10;;;14.30;51.20;;;;;;5073020;28;20040;-65
2022/05/01 09:41:30;;;;;;;7.23;4.80;;;14.30;50.90;;;;;;5083119;28;20291;-65
2022/05/01 09:43:56;;;;;;;6.13;4.37;;;14.20;51.10;;;;;;5052428;28;21150;-65
2022/05/01 09:46:29;;;;;;;8.00;5.20;;;14.20;51.30;;;;;;5067114;28;20447;-65
2022/05/01 09:49:05;;;;;;;6.27;4.73;;;14.20;50.90;;;;;;5074022;28;20548;-65
2022/05/01 09:51:38;;;;;;;4.73;4.20;;;14.20;51.10;;;;;;5068651;28;20369;-65
2022/05/01 09:54:06;;;;;;;6.33;4.80;;;14.20;50.80;;;;;;5065865;28;20685;-65
2022/05/01 09:56:48;;;;;;;6.73;4.17;;;14.30;50.90;;;;;;5060354;28;20295;-65
2022/05/01 09:59:15;;;;;;;6.00;4.37;;;14.30;50.80;;;;;;5042863;28;20369;-65
2022/05/01 10:01:55;;;;;;;8.67;4.60;;;14.30;50.50;;;;;;5066806;28;20650;-65
2022/05/01 10:04:23;;;;;;;8.37;4.70;;;14.30;50.30;;;;;;5091664;27;20295;-66
2022/05/01 10:06:54;;;;;;;6.17;4.57;;;14.40;50.50;;;;;;5074523;28;20375;-65
2022/05/01 10:09:25;;;;;;;6.17;4.33;;;14.30;49.60;;;;;;5047811;28;20290;-65
2022/05/01 10:11:57;;;;;;;6.50;4.77;;;14.20;50.00;;;;;;5059657;28;20303;-65
2022/05/01 10:14:24;;;;;;;5.87;4.20;;;14.30;50.20;;;;;;5067280;28;20286;-65
2022/05/01 10:16:50;;;;;;;6.17;4.07;;;14.20;50.30;;;;;;5065615;28;20287;-65
2022/05/01 10:19:17;;;;;;;5.33;3.63;;;14.30;51.00;;;;;;5067775;28;20311;-65
2022/05/01 10:21:47;;;;;;;6.17;4.33;;;14.60;51.00;;;;;;5078195;28;20344;-65
2022/05/01 10:24:17;;;;;;;5.87;4.00;;;14.90;50.60;;;;;;5065829;28;20349;-65
2022/05/01 10:26:53;;;;;;;6.17;5.00;;;15.10;49.30;;;;;;5046032;28;20834;-65
2022/05/01 10:29:34;;;;;;;5.83;4.57;;;15.20;48.70;;;;;;5045432;28;21098;-65
2022/05/01 10:32:21;;;;;;;7.70;4.63;;;15.40;48.90;;;;;;5060773;28;20314;-65
2022/05/01 10:35:14;;;;;;;7.40;4.70;;;15.50;48.30;;;;;;5092090;28;21580;-65
2022/05/01 10:37:49;;;;;;;6.17;4.37;;;15.40;48.00;;;;;;5092352;27;20291;-65
2022/05/01 10:40:15;;;;;;;6.45;3.70;;;15.30;48.30;;;;;;5044083;28;20891;-65
2022/05/01 10:42:49;;;;;;;5.57;4.03;;;15.30;48.70;;;;;;5043379;28;20256;-65
2022/05/01 10:45:21;;;;;;;5.60;3.88;;;15.20;48.50;;;;;;5056186;28;20310;-65
2022/05/01 10:47:54;;;;;;;5.83;3.83;;;15.20;48.80;;;;;;5073721;28;20055;-65
2022/05/01 10:50:25;;;;;;;6.33;4.20;;;15.30;48.60;;;;;;5065687;28;20304;-65
2022/05/01 10:53:16;;;;;;;4.80;3.77;;;15.10;48.00;;;;;;5060769;28;21200;-65
2022/05/01 10:55:53;;;;;;;5.77;4.00;;;15.10;48.10;;;;;;5045551;28;20282;-65
2022/05/01 10:58:26;;;;;;;5.57;4.03;;;15.20;48.20;;;;;;5057148;28;20282;-65
2022/05/01 11:00:56;;;;;;;6.57;3.80;;;15.10;47.90;;;;;;5059686;28;20287;-65
2022/05/01 11:03:29;;;;;;;4.23;3.70;;;15.10;47.60;;;;;;5084039;28;20309;-65
2022/05/01 11:06:04;;;;;;;5.83;4.03;;;14.90;47.70;;;;;;5041442;28;20287;-65
2022/05/01 11:08:36;;;;;;;5.20;3.78;;;14.80;48.10;;;;;;5096173;28;20299;-65
2022/05/01 11:11:05;;;;;;;6.10;4.23;;;14.90;48.90;;;;;;5060462;28;20031;-65
2022/05/01 11:13:33;;;;;;;4.33;3.87;;;15.10;48.10;;;;;;5052452;28;20303;-65
2022/05/01 11:15:59;;;;;;;5.30;3.30;;;15.30;48.50;;;;;;5062964;28;20298;-65
2022/05/01 11:18:52;;;;;;;5.20;3.63;;;15.50;48.00;;;;;;5051936;28;20640;-65
2022/05/01 11:21:23;;;;;;;3.57;2.90;;;15.70;47.50;;;;;;5039594;28;20299;-65
2022/05/01 11:24:03;;;;;;;4.90;3.00;;;15.70;45.80;;;;;;5056721;28;20709;-65
2022/05/01 11:26:30;;;;;;;3.97;3.20;;;15.80;46.10;;;;;;5094440;28;20283;-65
2022/05/01 11:29:06;;;;;;;4.87;2.70;;;15.70;46.20;;;;;;5052091;28;20386;-65
2022/05/01 11:31:38;;;;;;;4.67;3.20;;;15.90;46.40;;;;;;5042039;28;20321;-65
2022/05/01 11:34:15;;;;;;;4.17;3.23;;;16.00;46.50;;;;;;5088905;28;20803;-66
2022/05/01 11:37:04;;;;;;;4.53;3.30;;;16.00;45.50;;;;;;5054451;28;20294;-65
2022/05/01 11:39:51;;;;;;;5.73;3.50;;;15.90;45.60;;;;;;5040813;28;20333;-65
2022/05/01 11:42:23;;;;;;;5.00;3.10;;;16.00;46.00;;;;;;5090616;28;20298;-65
2022/05/01 11:44:49;;;;;;;3.90;3.00;;;16.20;45.90;;;;;;5094211;28;20289;-65
2022/05/01 11:47:18;;;;;;;4.37;3.20;;;16.30;45.50;;;;;;5054968;28;20303;-65
2022/05/01 11:49:45;;;;;;;4.53;3.00;;;16.20;45.20;;;;;;5091844;28;20362;-65
2022/05/01 11:52:14;;;;;;;4.43;3.13;;;16.30;45.80;;;;;;5056972;28;20786;-65
2022/05/01 11:54:44;;;;;;;4.67;2.97;;;16.30;44.40;;;;;;5070311;28;20297;-65
2022/05/01 12:02:39;;;;;;;3.75;2.85;;;16.70;44.90;;;;;;5066382;28;20294;-65
2022/05/01 12:05:05;;;;;;;3.70;2.90;;;16.90;43.30;;;;;;5038345;28;20055;-66
2022/05/01 12:07:32;;;;;;;3.80;2.63;;;16.80;44.50;;;;;;5049843;28;20336;-66
2022/05/01 12:09:58;;;;;;;5.63;3.20;;;16.70;43.30;;;;;;5048849;28;20329;-66
2022/05/01 12:12:29;;;;;;;4.30;2.90;;;16.80;43.30;;;;;;5068577;28;20838;-66
2022/05/01 12:14:55;;;;;;;5.83;2.90;;;16.70;42.60;;;;;;5078901;28;20454;-66
2022/05/01 12:17:21;;;;;;;5.30;3.10;;;16.80;44.00;;;;;;5039489;28;20329;-66
2022/05/01 12:19:51;;;;;;;4.27;2.67;;;17.00;44.00;;;;;;5023879;28;20338;-66
2022/05/01 12:22:20;;;;;;;7.07;2.77;;;17.20;43.40;;;;;;5060860;28;20806;-66
2022/05/01 12:24:47;;;;;;;3.17;2.20;;;17.20;42.40;;;;;;5068118;28;20317;-66
2022/05/01 12:27:18;;;;;;;3.23;2.17;;;17.30;42.80;;;;;;5061989;28;20531;-65
2022/05/01 12:29:49;;;;;;;4.03;2.90;;;17.30;43.00;;;;;;5075311;28;20301;-66
2022/05/01 12:32:16;;;;;;;5.23;2.87;;;17.40;41.80;;;;;;5052002;28;20872;-66
2022/05/01 12:34:44;;;;;;;2.93;2.47;;;17.40;42.30;;;;;;5069764;28;20761;-66
2022/05/01 12:37:15;;;;;;;3.10;2.30;;;17.60;42.50;;;;;;5059242;28;20628;-66
2022/05/01 12:40:07;;;;;;;3.57;2.40;;;17.60;42.50;;;;;;5040555;28;21005;-66
2022/05/01 12:45:49;;;;;;;4.65;2.47;;;17.60;42.00;;;;;;5028782;28;20314;-66
2022/05/01 12:48:17;;;;;;;3.57;2.43;;;17.70;42.50;;;;;;5062525;28;20135;-66
2022/05/01 12:50:43;;;;;;;3.70;2.13;;;17.80;42.20;;;;;;5099520;28;20441;-66
2022/05/01 12:53:24;;;;;;;6.17;2.47;;;18.00;42.30;;;;;;5062424;28;20783;-66
2022/05/01 12:55:50;;;;;;;3.83;2.20;;;18.00;42.30;;;;;;5042823;28;20944;-66
2022/05/01 12:58:30;;;;;;;4.17;2.60;;;18.00;42.30;;;;;;5071056;28;20819;-66
2022/05/01 13:00:57;;;;;;;3.23;2.30;;;17.90;42.00;;;;;;5061006;28;20286;-66
2022/05/01 13:03:41;;;;;;;3.60;2.17;;;17.80;41.90;;;;;;5063017;28;20289;-66
2022/05/01 13:06:11;;;;;;;4.60;2.30;;;17.80;41.50;;;;;;5093096;28;20294;-66
2022/05/01 13:09:09;;;;;;;2.30;2.07;;;17.60;41.80;;;;;;5061807;28;20391;-66
2022/05/01 13:11:36;;;;;;;2.10;1.80;;;17.60;43.10;;;;;;5090220;28;20448;-65
2022/05/01 13:14:30;;;;;;;4.17;1.73;;;17.80;41.90;;;;;;5098567;27;20340;-65
2022/05/01 13:17:10;;;;;;;2.57;1.50;;;17.90;39.90;;;;;;5065440;28;20282;-65
2022/05/01 13:19:38;;;;;;;2.83;1.80;;;17.90;40.10;;;;;;5050556;28;20329;-65
2022/05/01 13:22:06;;;;;;;4.20;2.30;;;18.00;40.80;;;;;;5096657;28;20302;-65